sensor_id;sensor_type;location;lat;lon;timestamp;P1;durP1;ratioP1;P2;durP2;ratioP2
9178;SDS011;4624;48.126;11.546;2023-02-08T00:00:19;9.47;;;6.30;;
9178;SDS011;4624;48.126;11.546;2023-02-08T00:02:46;10.13;;;6.43;;
9178;SDS011;4624;48.126;11.546;2023-02-08T00:05:14;11.13;;;6.40;;
9178;SDS011;4624;48.126;11.546;2023-02-08T00:07:41;11.60;;;6.80;;
9178;SDS011;4624;48.126;11.546;2023-02-08T00:10:08;10.90;;;6.10;;
9178;SDS011;4624;48.126;11.546;2023-02-08T00:12:36;13.23;;;7.37;;
9178;SDS011;4624;48.126;11.546;2023-02-08T00:15:03;11.87;;;7.03;;
9178;SDS011;4624;48.126;11.546;2023-02-08T00:17:30;11.17;;;5.97;;
9178;SDS011;4624;48.126;11.546;2023-02-08T00:19:57;10.00;;;5.97;;
9178;SDS011;4624;48.126;11.546;2023-02-08T00:22:25;9.13;;;6.57;;
9178;SDS011;4624;48.126;11.546;2023-02-08T00:24:52;12.20;;;6.77;;
9178;SDS011;4624;48.126;11.546;2023-02-08T00:27:18;11.57;;;6.80;;
9178;SDS011;4624;48.126;11.546;2023-02-08T00:29:45;10.40;;;6.87;;
9178;SDS011;4624;48.126;11.546;2023-02-08T00:32:12;14.07;;;7.23;;
9178;SDS011;4624;48.126;11.546;2023-02-08T00:34:39;11.40;;;6.33;;
9178;SDS011;4624;48.126;11.546;2023-02-08T00:37:05;9.63;;;6.17;;
9178;SDS011;4624;48.126;11.546;2023-02-08T00:39:34;10.30;;;6.37;;
9178;SDS011;4624;48.126;11.546;2023-02-08T00:42:00;10.37;;;6.50;;
9178;SDS011;4624;48.126;11.546;2023-02-08T00:44:27;10.30;;;6.50;;
9178;SDS011;4624;48.126;11.546;2023-02-08T00:46:54;11.13;;;6.33;;
9178;SDS011;4624;48.126;11.546;2023-02-08T00:49:20;10.60;;;7.20;;
9178;SDS011;4624;48.126;11.546;2023-02-08T00:51:47;10.80;;;6.90;;
9178;SDS011;4624;48.126;11.546;2023-02-08T00:54:15;10.77;;;6.03;;
9178;SDS011;4624;48.126;11.546;2023-02-08T00:56:44;9.90;;;6.60;;
9178;SDS011;4624;48.126;11.546;2023-02-08T00:59:10;11.40;;;6.87;;
9178;SDS011;4624;48.126;11.546;2023-02-08T01:01:38;13.93;;;6.47;;
9178;SDS011;4624;48.126;11.546;2023-02-08T01:04:05;11.07;;;7.00;;
9178;SDS011;4624;48.126;11.546;2023-02-08T01:06:32;10.57;;;5.93;;
9178;SDS011;4624;48.126;11.546;2023-02-08T01:08:59;12.80;;;7.13;;
9178;SDS011;4624;48.126;11.546;2023-02-08T01:11:26;14.50;;;7.60;;
9178;SDS011;4624;48.126;11.546;2023-02-08T01:13:54;11.80;;;6.30;;
9178;SDS011;4624;48.126;11.546;2023-02-08T01:16:23;10.90;;;6.47;;
9178;SDS011;4624;48.126;11.546;2023-02-08T01:18:52;10.27;;;5.87;;
9178;SDS011;4624;48.126;11.546;2023-02-08T01:21:22;10.33;;;6.60;;
9178;SDS011;4624;48.126;11.546;2023-02-08T01:23:50;12.23;;;7.30;;
9178;SDS011;4624;48.126;11.546;2023-02-08T01:26:18;11.03;;;6.97;;
9178;SDS011;4624;48.126;11.546;2023-02-08T01:28:46;13.07;;;7.30;;
9178;SDS011;4624;48.126;11.546;2023-02-08T01:31:16;11.03;;;7.00;;
9178;SDS011;4624;48.126;11.546;2023-02-08T01:33:45;9.53;;;7.30;;
9178;SDS011;4624;48.126;11.546;2023-02-08T01:36:13;12.07;;;7.10;;
9178;SDS011;4624;48.126;11.546;2023-02-08T01:38:40;9.73;;;6.50;;
9178;SDS011;4624;48.126;11.546;2023-02-08T01:41:12;14.33;;;7.87;;
9178;SDS011;4624;48.126;11.546;2023-02-08T01:43:59;11.03;;;6.57;;
9178;SDS011;4624;48.126;11.546;2023-02-08T01:46:54;11.87;;;7.07;;
9178;SDS011;4624;48.126;11.546;2023-02-08T01:49:22;12.10;;;7.23;;
9178;SDS011;4624;48.126;11.546;2023-02-08T01:51:53;10.60;;;7.87;;
9178;SDS011;4624;48.126;11.546;2023-02-08T01:54:25;11.93;;;7.63;;
9178;SDS011;4624;48.126;11.546;2023-02-08T01:57:00;12.27;;;7.07;;
9178;SDS011;4624;48.126;11.546;2023-02-08T01:59:29;10.03;;;7.63;;
9178;SDS011;4624;48.126;11.546;2023-02-08T02:02:02;13.57;;;7.53;;
9178;SDS011;4624;48.126;11.546;2023-02-08T02:04:31;11.37;;;6.90;;
9178;SDS011;4624;48.126;11.546;2023-02-08T02:07:00;11.37;;;7.70;;
9178;SDS011;4624;48.126;11.546;2023-02-08T02:09:30;11.27;;;7.40;;
9178;SDS011;4624;48.126;11.546;2023-02-08T02:12:02;11.93;;;7.37;;
9178;SDS011;4624;48.126;11.546;2023-02-08T02:14:30;12.37;;;7.63;;
9178;SDS011;4624;48.126;11.546;2023-02-08T02:16:58;11.43;;;7.23;;
9178;SDS011;4624;48.126;11.546;2023-02-08T02:19:28;11.20;;;7.83;;
9178;SDS011;4624;48.126;11.546;2023-02-08T02:22:02;12.90;;;7.00;;
9178;SDS011;4624;48.126;11.546;2023-02-08T02:24:57;13.07;;;8.03;;
9178;SDS011;4624;48.126;11.546;2023-02-08T02:27:49;15.33;;;7.60;;
9178;SDS011;4624;48.126;11.546;2023-02-08T02:30:50;13.13;;;7.43;;
9178;SDS011;4624;48.126;11.546;2023-02-08T02:33:51;12.77;;;7.10;;
9178;SDS011;4624;48.126;11.546;2023-02-08T02:36:26;13.63;;;8.43;;
9178;SDS011;4624;48.126;11.546;2023-02-08T02:38:59;12.73;;;7.90;;
9178;SDS011;4624;48.126;11.546;2023-02-08T02:41:36;12.10;;;7.23;;
9178;SDS011;4624;48.126;11.546;2023-02-08T02:44:28;13.80;;;7.93;;
9178;SDS011;4624;48.126;11.546;2023-02-08T02:47:05;15.77;;;7.43;;
9178;SDS011;4624;48.126;11.546;2023-02-08T02:49:41;14.07;;;8.47;;
9178;SDS011;4624;48.126;11.546;2023-02-08T02:52:14;12.83;;;8.07;;
9178;SDS011;4624;48.126;11.546;2023-02-08T02:54:45;11.40;;;7.17;;
9178;SDS011;4624;48.126;11.546;2023-02-08T02:57:16;13.67;;;8.33;;
9178;SDS011;4624;48.126;11.546;2023-02-08T02:59:47;16.70;;;8.30;;
9178;SDS011;4624;48.126;11.546;2023-02-08T03:02:14;13.37;;;8.37;;
9178;SDS011;4624;48.126;11.546;2023-02-08T03:04:47;14.20;;;9.33;;
9178;SDS011;4624;48.126;11.546;2023-02-08T03:07:18;13.37;;;8.10;;
9178;SDS011;4624;48.126;11.546;2023-02-08T03:09:55;11.30;;;7.40;;
9178;SDS011;4624;48.126;11.546;2023-02-08T03:12:31;11.77;;;7.87;;
9178;SDS011;4624;48.126;11.546;2023-02-08T03:15:05;12.03;;;7.77;;
9178;SDS011;4624;48.126;11.546;2023-02-08T03:17:46;14.37;;;8.43;;
9178;SDS011;4624;48.126;11.546;2023-02-08T03:20:27;14.77;;;8.37;;
9178;SDS011;4624;48.126;11.546;2023-02-08T03:22:58;14.47;;;8.47;;
9178;SDS011;4624;48.126;11.546;2023-02-08T03:25:30;12.70;;;8.40;;
9178;SDS011;4624;48.126;11.546;2023-02-08T03:28:00;13.93;;;8.43;;
9178;SDS011;4624;48.126;11.546;2023-02-08T03:30:31;15.27;;;8.43;;
9178;SDS011;4624;48.126;11.546;2023-02-08T03:33:10;12.07;;;7.50;;
9178;SDS011;4624;48.126;11.546;2023-02-08T03:35:43;15.13;;;8.37;;
9178;SDS011;4624;48.126;11.546;2023-02-08T03:38:21;12.37;;;7.20;;
9178;SDS011;4624;48.126;11.546;2023-02-08T03:40:52;9.90;;;7.47;;
9178;SDS011;4624;48.126;11.546;2023-02-08T03:43:23;14.07;;;9.03;;
9178;SDS011;4624;48.126;11.546;2023-02-08T03:45:56;12.57;;;7.57;;
9178;SDS011;4624;48.126;11.546;2023-02-08T03:48:28;13.10;;;8.00;;
9178;SDS011;4624;48.126;11.546;2023-02-08T03:50:58;15.20;;;9.43;;
9178;SDS011;4624;48.126;11.546;2023-02-08T03:53:28;13.37;;;7.77;;
9178;SDS011;4624;48.126;11.546;2023-02-08T03:56:02;13.77;;;8.63;;
9178;SDS011;4624;48.126;11.546;2023-02-08T03:58:35;14.60;;;8.73;;
9178;SDS011;4624;48.126;11.546;2023-02-08T04:01:07;14.67;;;7.07;;
9178;SDS011;4624;48.126;11.546;2023-02-08T04:03:40;12.17;;;7.70;;
9178;SDS011;4624;48.126;11.546;2023-02-08T04:06:10;16.40;;;8.50;;
9178;SDS011;4624;48.126;11.546;2023-02-08T04:08:37;13.13;;;8.70;;
9178;SDS011;4624;48.126;11.546;2023-02-08T04:11:04;12.77;;;8.03;;
9178;SDS011;4624;48.126;11.546;2023-02-08T04:13:31;12.50;;;7.77;;
9178;SDS011;4624;48.126;11.546;2023-02-08T04:15:57;13.67;;;8.43;;
9178;SDS011;4624;48.126;11.546;2023-02-08T04:18:24;12.50;;;8.50;;
9178;SDS011;4624;48.126;11.546;2023-02-08T04:20:51;12.37;;;7.83;;
9178;SDS011;4624;48.126;11.546;2023-02-08T04:23:19;13.93;;;8.80;;
9178;SDS011;4624;48.126;11.546;2023-02-08T04:25:46;13.73;;;8.67;;
9178;SDS011;4624;48.126;11.546;2023-02-08T04:28:12;14.53;;;9.43;;
9178;SDS011;4624;48.126;11.546;2023-02-08T04:30:39;14.07;;;8.53;;
9178;SDS011;4624;48.126;11.546;2023-02-08T04:33:06;12.47;;;8.47;;
9178;SDS011;4624;48.126;11.546;2023-02-08T04:35:33;12.87;;;8.87;;
9178;SDS011;4624;48.126;11.546;2023-02-08T04:37:59;17.40;;;8.97;;
9178;SDS011;4624;48.126;11.546;2023-02-08T04:40:27;13.47;;;8.00;;
9178;SDS011;4624;48.126;11.546;2023-02-08T04:42:55;13.87;;;9.13;;
9178;SDS011;4624;48.126;11.546;2023-02-08T04:45:21;14.83;;;9.13;;
9178;SDS011;4624;48.126;11.546;2023-02-08T04:47:49;13.97;;;9.00;;
9178;SDS011;4624;48.126;11.546;2023-02-08T04:50:16;14.70;;;8.87;;
9178;SDS011;4624;48.126;11.546;2023-02-08T04:52:43;12.83;;;8.33;;
9178;SDS011;4624;48.126;11.546;2023-02-08T04:55:09;16.30;;;9.17;;
9178;SDS011;4624;48.126;11.546;2023-02-08T04:57:37;15.60;;;9.67;;
9178;SDS011;4624;48.126;11.546;2023-02-08T05:00:05;15.77;;;9.67;;
9178;SDS011;4624;48.126;11.546;2023-02-08T05:02:32;15.17;;;8.63;;
9178;SDS011;4624;48.126;11.546;2023-02-08T05:04:59;15.50;;;8.93;;
9178;SDS011;4624;48.126;11.546;2023-02-08T05:07:26;16.33;;;10.47;;
9178;SDS011;4624;48.126;11.546;2023-02-08T05:09:53;13.83;;;9.00;;
9178;SDS011;4624;48.126;11.546;2023-02-08T05:12:19;13.67;;;8.47;;
9178;SDS011;4624;48.126;11.546;2023-02-08T05:14:47;14.33;;;9.00;;
9178;SDS011;4624;48.126;11.546;2023-02-08T05:17:14;13.20;;;8.23;;
9178;SDS011;4624;48.126;11.546;2023-02-08T05:19:41;17.60;;;9.67;;
9178;SDS011;4624;48.126;11.546;2023-02-08T05:22:08;14.57;;;9.63;;
9178;SDS011;4624;48.126;11.546;2023-02-08T05:24:34;14.27;;;8.97;;
9178;SDS011;4624;48.126;11.546;2023-02-08T05:27:01;19.67;;;10.23;;
9178;SDS011;4624;48.126;11.546;2023-02-08T05:29:28;13.70;;;9.93;;
9178;SDS011;4624;48.126;11.546;2023-02-08T05:31:56;18.90;;;9.70;;
9178;SDS011;4624;48.126;11.546;2023-02-08T05:34:23;14.73;;;9.43;;
9178;SDS011;4624;48.126;11.546;2023-02-08T05:36:50;20.17;;;10.20;;
9178;SDS011;4624;48.126;11.546;2023-02-08T05:39:16;17.03;;;10.03;;
9178;SDS011;4624;48.126;11.546;2023-02-08T05:41:43;15.27;;;9.67;;
9178;SDS011;4624;48.126;11.546;2023-02-08T05:44:10;15.50;;;9.77;;
9178;SDS011;4624;48.126;11.546;2023-02-08T05:46:37;16.80;;;10.10;;
9178;SDS011;4624;48.126;11.546;2023-02-08T05:49:05;16.40;;;9.97;;
9178;SDS011;4624;48.126;11.546;2023-02-08T05:51:32;15.73;;;9.83;;
9178;SDS011;4624;48.126;11.546;2023-02-08T05:53:58;18.27;;;9.50;;
9178;SDS011;4624;48.126;11.546;2023-02-08T05:56:25;16.97;;;9.57;;
9178;SDS011;4624;48.126;11.546;2023-02-08T05:58:52;15.10;;;9.53;;
9178;SDS011;4624;48.126;11.546;2023-02-08T06:01:19;14.57;;;9.70;;
9178;SDS011;4624;48.126;11.546;2023-02-08T06:03:47;16.87;;;9.97;;
9178;SDS011;4624;48.126;11.546;2023-02-08T06:06:15;18.47;;;10.73;;
9178;SDS011;4624;48.126;11.546;2023-02-08T06:08:42;16.33;;;9.93;;
9178;SDS011;4624;48.126;11.546;2023-02-08T06:11:09;15.90;;;9.40;;
9178;SDS011;4624;48.126;11.546;2023-02-08T06:13:35;18.50;;;10.40;;
9178;SDS011;4624;48.126;11.546;2023-02-08T06:16:03;18.60;;;9.90;;
9178;SDS011;4624;48.126;11.546;2023-02-08T06:18:30;18.37;;;10.57;;
9178;SDS011;4624;48.126;11.546;2023-02-08T06:20:57;16.37;;;9.40;;
9178;SDS011;4624;48.126;11.546;2023-02-08T06:23:25;20.37;;;10.93;;
9178;SDS011;4624;48.126;11.546;2023-02-08T06:25:52;15.90;;;10.90;;
9178;SDS011;4624;48.126;11.546;2023-02-08T06:28:18;18.40;;;10.07;;
9178;SDS011;4624;48.126;11.546;2023-02-08T06:30:47;19.30;;;10.53;;
9178;SDS011;4624;48.126;11.546;2023-02-08T06:33:14;16.87;;;10.10;;
9178;SDS011;4624;48.126;11.546;2023-02-08T06:35:42;16.63;;;10.23;;
9178;SDS011;4624;48.126;11.546;2023-02-08T06:38:09;16.80;;;10.50;;
9178;SDS011;4624;48.126;11.546;2023-02-08T06:40:38;17.50;;;11.20;;
9178;SDS011;4624;48.126;11.546;2023-02-08T06:43:04;17.93;;;11.20;;
9178;SDS011;4624;48.126;11.546;2023-02-08T06:45:32;18.27;;;10.23;;
9178;SDS011;4624;48.126;11.546;2023-02-08T06:47:58;19.97;;;11.00;;
9178;SDS011;4624;48.126;11.546;2023-02-08T06:50:25;18.87;;;10.67;;
9178;SDS011;4624;48.126;11.546;2023-02-08T06:52:52;16.10;;;10.83;;
9178;SDS011;4624;48.126;11.546;2023-02-08T06:55:18;17.93;;;11.73;;
9178;SDS011;4624;48.126;11.546;2023-02-08T06:57:47;16.77;;;10.33;;
9178;SDS011;4624;48.126;11.546;2023-02-08T07:00:14;15.97;;;10.50;;
9178;SDS011;4624;48.126;11.546;2023-02-08T07:02:40;17.40;;;10.33;;
9178;SDS011;4624;48.126;11.546;2023-02-08T07:05:07;17.33;;;11.07;;
9178;SDS011;4624;48.126;11.546;2023-02-08T07:07:34;21.23;;;11.37;;
9178;SDS011;4624;48.126;11.546;2023-02-08T07:10:01;16.10;;;9.83;;
9178;SDS011;4624;48.126;11.546;2023-02-08T07:12:27;21.47;;;12.07;;
9178;SDS011;4624;48.126;11.546;2023-02-08T07:14:55;17.17;;;10.67;;
9178;SDS011;4624;48.126;11.546;2023-02-08T07:17:22;17.57;;;10.33;;
9178;SDS011;4624;48.126;11.546;2023-02-08T07:19:49;17.97;;;11.60;;
9178;SDS011;4624;48.126;11.546;2023-02-08T07:22:16;16.80;;;10.77;;
9178;SDS011;4624;48.126;11.546;2023-02-08T07:24:42;18.10;;;10.37;;
9178;SDS011;4624;48.126;11.546;2023-02-08T07:27:10;16.73;;;9.63;;
9178;SDS011;4624;48.126;11.546;2023-02-08T07:29:38;15.50;;;9.73;;
9178;SDS011;4624;48.126;11.546;2023-02-08T07:32:06;15.57;;;9.60;;
9178;SDS011;4624;48.126;11.546;2023-02-08T07:34:35;15.63;;;9.33;;
9178;SDS011;4624;48.126;11.546;2023-02-08T07:37:04;17.60;;;9.87;;
9178;SDS011;4624;48.126;11.546;2023-02-08T07:39:31;16.07;;;9.67;;
9178;SDS011;4624;48.126;11.546;2023-02-08T07:41:58;16.13;;;9.90;;
9178;SDS011;4624;48.126;11.546;2023-02-08T07:44:25;14.67;;;9.97;;
9178;SDS011;4624;48.126;11.546;2023-02-08T07:46:52;13.93;;;9.50;;
9178;SDS011;4624;48.126;11.546;2023-02-08T07:49:20;14.90;;;9.60;;
9178;SDS011;4624;48.126;11.546;2023-02-08T07:51:47;13.90;;;10.30;;
9178;SDS011;4624;48.126;11.546;2023-02-08T07:54:13;13.67;;;9.17;;
9178;SDS011;4624;48.126;11.546;2023-02-08T07:56:40;17.23;;;9.97;;
9178;SDS011;4624;48.126;11.546;2023-02-08T07:59:07;15.13;;;9.60;;
9178;SDS011;4624;48.126;11.546;2023-02-08T08:01:34;14.73;;;10.07;;
9178;SDS011;4624;48.126;11.546;2023-02-08T08:04:01;15.47;;;9.97;;
9178;SDS011;4624;48.126;11.546;2023-02-08T08:06:29;15.23;;;10.47;;
9178;SDS011;4624;48.126;11.546;2023-02-08T08:08:56;14.27;;;9.93;;
9178;SDS011;4624;48.126;11.546;2023-02-08T08:11:22;15.87;;;10.43;;
9178;SDS011;4624;48.126;11.546;2023-02-08T08:13:49;14.30;;;10.30;;
9178;SDS011;4624;48.126;11.546;2023-02-08T08:16:16;12.77;;;9.77;;
9178;SDS011;4624;48.126;11.546;2023-02-08T08:18:44;14.20;;;10.13;;
9178;SDS011;4624;48.126;11.546;2023-02-08T08:21:11;13.40;;;9.97;;
9178;SDS011;4624;48.126;11.546;2023-02-08T08:23:40;14.23;;;10.10;;
9178;SDS011;4624;48.126;11.546;2023-02-08T08:26:07;16.60;;;10.17;;
9178;SDS011;4624;48.126;11.546;2023-02-08T08:28:35;15.53;;;10.07;;
9178;SDS011;4624;48.126;11.546;2023-02-08T08:31:01;13.80;;;9.70;;
9178;SDS011;4624;48.126;11.546;2023-02-08T08:33:28;20.30;;;10.63;;
9178;SDS011;4624;48.126;11.546;2023-02-08T08:35:55;13.43;;;9.80;;
9178;SDS011;4624;48.126;11.546;2023-02-08T08:38:22;15.00;;;10.30;;
9178;SDS011;4624;48.126;11.546;2023-02-08T08:40:50;13.90;;;9.90;;
9178;SDS011;4624;48.126;11.546;2023-02-08T08:43:16;13.07;;;9.83;;
9178;SDS011;4624;48.126;11.546;2023-02-08T08:45:43;13.23;;;10.20;;
9178;SDS011;4624;48.126;11.546;2023-02-08T08:48:10;13.60;;;10.23;;
9178;SDS011;4624;48.126;11.546;2023-02-08T08:50:37;13.30;;;9.47;;
9178;SDS011;4624;48.126;11.546;2023-02-08T08:53:04;15.50;;;9.40;;
9178;SDS011;4624;48.126;11.546;2023-02-08T08:55:31;13.77;;;10.40;;
9178;SDS011;4624;48.126;11.546;2023-02-08T08:57:59;10.77;;;9.03;;
9178;SDS011;4624;48.126;11.546;2023-02-08T09:00:25;13.27;;;8.57;;
9178;SDS011;4624;48.126;11.546;2023-02-08T09:02:52;12.47;;;9.37;;
9178;SDS011;4624;48.126;11.546;2023-02-08T09:05:19;12.60;;;9.10;;
9178;SDS011;4624;48.126;11.546;2023-02-08T09:07:46;12.53;;;9.13;;
9178;SDS011;4624;48.126;11.546;2023-02-08T09:10:12;14.03;;;9.37;;
9178;SDS011;4624;48.126;11.546;2023-02-08T09:12:39;12.27;;;10.03;;
9178;SDS011;4624;48.126;11.546;2023-02-08T09:15:08;13.47;;;9.63;;
9178;SDS011;4624;48.126;11.546;2023-02-08T09:17:35;15.40;;;9.27;;
9178;SDS011;4624;48.126;11.546;2023-02-08T09:20:03;12.27;;;9.00;;
9178;SDS011;4624;48.126;11.546;2023-02-08T09:22:30;14.87;;;10.17;;
9178;SDS011;4624;48.126;11.546;2023-02-08T09:24:57;12.67;;;9.73;;
9178;SDS011;4624;48.126;11.546;2023-02-08T09:27:26;11.47;;;9.07;;
9178;SDS011;4624;48.126;11.546;2023-02-08T09:29:52;12.03;;;9.03;;
9178;SDS011;4624;48.126;11.546;2023-02-08T09:32:20;13.07;;;10.17;;
9178;SDS011;4624;48.126;11.546;2023-02-08T09:34:47;13.20;;;9.90;;
9178;SDS011;4624;48.126;11.546;2023-02-08T09:37:14;14.03;;;9.43;;
9178;SDS011;4624;48.126;11.546;2023-02-08T09:39:42;12.17;;;9.50;;
9178;SDS011;4624;48.126;11.546;2023-02-08T09:42:24;14.70;;;10.43;;
9178;SDS011;4624;48.126;11.546;2023-02-08T09:45:21;14.93;;;10.67;;
9178;SDS011;4624;48.126;11.546;2023-02-08T09:47:58;13.47;;;9.67;;
9178;SDS011;4624;48.126;11.546;2023-02-08T09:50:30;14.03;;;10.57;;
9178;SDS011;4624;48.126;11.546;2023-02-08T09:53:01;14.13;;;10.40;;
9178;SDS011;4624;48.126;11.546;2023-02-08T09:55:33;14.27;;;9.63;;
9178;SDS011;4624;48.126;11.546;2023-02-08T09:58:04;12.17;;;10.10;;
9178;SDS011;4624;48.126;11.546;2023-02-08T10:00:39;15.10;;;10.33;;
9178;SDS011;4624;48.126;11.546;2023-02-08T10:03:13;15.87;;;11.50;;
9178;SDS011;4624;48.126;11.546;2023-02-08T10:05:51;15.40;;;10.50;;
9178;SDS011;4624;48.126;11.546;2023-02-08T10:08:18;13.93;;;10.43;;
9178;SDS011;4624;48.126;11.546;2023-02-08T10:10:47;15.00;;;10.60;;
9178;SDS011;4624;48.126;11.546;2023-02-08T10:13:24;16.80;;;10.20;;
9178;SDS011;4624;48.126;11.546;2023-02-08T10:16:10;13.73;;;10.43;;
9178;SDS011;4624;48.126;11.546;2023-02-08T10:18:47;15.10;;;11.30;;
9178;SDS011;4624;48.126;11.546;2023-02-08T10:21:21;12.77;;;10.43;;
9178;SDS011;4624;48.126;11.546;2023-02-08T10:24:17;14.60;;;11.37;;
9178;SDS011;4624;48.126;11.546;2023-02-08T10:27:05;16.80;;;10.27;;
9178;SDS011;4624;48.126;11.546;2023-02-08T10:32:49;11.83;;;10.23;;
9178;SDS011;4624;48.126;11.546;2023-02-08T10:35:25;14.70;;;10.67;;
9178;SDS011;4624;48.126;11.546;2023-02-08T10:37:56;13.23;;;10.07;;
9178;SDS011;4624;48.126;11.546;2023-02-08T10:40:30;15.70;;;10.27;;
9178;SDS011;4624;48.126;11.546;2023-02-08T10:45:48;12.67;;;10.60;;
9178;SDS011;4624;48.126;11.546;2023-02-08T10:48:21;13.07;;;10.27;;
9178;SDS011;4624;48.126;11.546;2023-02-08T10:50:58;12.23;;;9.10;;
9178;SDS011;4624;48.126;11.546;2023-02-08T10:53:25;11.47;;;9.50;;
9178;SDS011;4624;48.126;11.546;2023-02-08T10:55:52;13.27;;;10.17;;
9178;SDS011;4624;48.126;11.546;2023-02-08T10:58:20;15.83;;;9.53;;
9178;SDS011;4624;48.126;11.546;2023-02-08T11:00:49;14.27;;;10.40;;
9178;SDS011;4624;48.126;11.546;2023-02-08T11:03:17;12.87;;;10.00;;
9178;SDS011;4624;48.126;11.546;2023-02-08T11:05:47;14.83;;;9.97;;
9178;SDS011;4624;48.126;11.546;2023-02-08T11:08:17;14.37;;;10.33;;
9178;SDS011;4624;48.126;11.546;2023-02-08T11:10:54;12.17;;;9.93;;
9178;SDS011;4624;48.126;11.546;2023-02-08T11:13:23;15.00;;;9.60;;
9178;SDS011;4624;48.126;11.546;2023-02-08T11:15:54;12.83;;;10.63;;
9178;SDS011;4624;48.126;11.546;2023-02-08T11:18:23;13.77;;;11.07;;
9178;SDS011;4624;48.126;11.546;2023-02-08T11:20:53;14.07;;;10.80;;
9178;SDS011;4624;48.126;11.546;2023-02-08T11:23:24;18.23;;;11.70;;
9178;SDS011;4624;48.126;11.546;2023-02-08T11:25:53;14.73;;;10.80;;
9178;SDS011;4624;48.126;11.546;2023-02-08T11:28:38;18.03;;;11.43;;
9178;SDS011;4624;48.126;11.546;2023-02-08T11:31:08;14.70;;;11.13;;
9178;SDS011;4624;48.126;11.546;2023-02-08T11:33:46;11.07;;;8.13;;
9178;SDS011;4624;48.126;11.546;2023-02-08T11:36:23;12.83;;;9.83;;
9178;SDS011;4624;48.126;11.546;2023-02-08T11:38:51;13.50;;;9.03;;
9178;SDS011;4624;48.126;11.546;2023-02-08T11:41:18;11.73;;;9.77;;
9178;SDS011;4624;48.126;11.546;2023-02-08T11:43:53;13.70;;;9.53;;
9178;SDS011;4624;48.126;11.546;2023-02-08T11:46:27;12.73;;;10.47;;
9178;SDS011;4624;48.126;11.546;2023-02-08T11:48:56;14.23;;;11.17;;
9178;SDS011;4624;48.126;11.546;2023-02-08T11:51:24;14.17;;;10.97;;
9178;SDS011;4624;48.126;11.546;2023-02-08T11:53:55;15.07;;;11.30;;
9178;SDS011;4624;48.126;11.546;2023-02-08T11:56:22;17.17;;;11.70;;
9178;SDS011;4624;48.126;11.546;2023-02-08T11:58:55;16.63;;;11.93;;
9178;SDS011;4624;48.126;11.546;2023-02-08T12:01:24;17.80;;;11.93;;
9178;SDS011;4624;48.126;11.546;2023-02-08T12:03:53;13.13;;;11.30;;
9178;SDS011;4624;48.126;11.546;2023-02-08T12:06:30;18.57;;;12.37;;
9178;SDS011;4624;48.126;11.546;2023-02-08T12:09:28;17.93;;;11.27;;
9178;SDS011;4624;48.126;11.546;2023-02-08T12:12:09;16.70;;;12.30;;
9178;SDS011;4624;48.126;11.546;2023-02-08T12:14:48;13.07;;;10.87;;
9178;SDS011;4624;48.126;11.546;2023-02-08T12:17:26;14.70;;;10.83;;
9178;SDS011;4624;48.126;11.546;2023-02-08T12:22:59;16.67;;;11.47;;
9178;SDS011;4624;48.126;11.546;2023-02-08T12:25:48;16.37;;;11.13;;
9178;SDS011;4624;48.126;11.546;2023-02-08T12:28:24;16.60;;;11.57;;
9178;SDS011;4624;48.126;11.546;2023-02-08T12:31:02;15.87;;;11.33;;
9178;SDS011;4624;48.126;11.546;2023-02-08T12:33:38;18.07;;;12.10;;
9178;SDS011;4624;48.126;11.546;2023-02-08T12:36:17;14.83;;;12.00;;
9178;SDS011;4624;48.126;11.546;2023-02-08T12:38:56;14.90;;;12.37;;
9178;SDS011;4624;48.126;11.546;2023-02-08T12:41:52;18.77;;;12.33;;
9178;SDS011;4624;48.126;11.546;2023-02-08T12:44:37;15.30;;;12.67;;
9178;SDS011;4624;48.126;11.546;2023-02-08T12:47:19;16.33;;;12.53;;
9178;SDS011;4624;48.126;11.546;2023-02-08T12:50:00;16.10;;;12.43;;
9178;SDS011;4624;48.126;11.546;2023-02-08T12:52:35;17.77;;;13.07;;
9178;SDS011;4624;48.126;11.546;2023-02-08T12:55:05;15.70;;;12.43;;
9178;SDS011;4624;48.126;11.546;2023-02-08T12:57:43;18.27;;;12.67;;
9178;SDS011;4624;48.126;11.546;2023-02-08T13:00:16;15.40;;;11.87;;
9178;SDS011;4624;48.126;11.546;2023-02-08T13:02:48;14.43;;;12.13;;
9178;SDS011;4624;48.126;11.546;2023-02-08T13:05:21;17.60;;;12.47;;
9178;SDS011;4624;48.126;11.546;2023-02-08T13:07:53;15.90;;;12.40;;
9178;SDS011;4624;48.126;11.546;2023-02-08T13:10:28;17.20;;;12.40;;
9178;SDS011;4624;48.126;11.546;2023-02-08T13:13:03;16.13;;;11.80;;
9178;SDS011;4624;48.126;11.546;2023-02-08T13:15:37;17.13;;;12.23;;
9178;SDS011;4624;48.126;11.546;2023-02-08T13:18:10;14.90;;;11.83;;
9178;SDS011;4624;48.126;11.546;2023-02-08T13:20:42;15.23;;;12.37;;
9178;SDS011;4624;48.126;11.546;2023-02-08T13:23:17;15.23;;;11.97;;
9178;SDS011;4624;48.126;11.546;2023-02-08T13:25:50;15.03;;;12.07;;
9178;SDS011;4624;48.126;11.546;2023-02-08T13:28:21;14.80;;;11.77;;
9178;SDS011;4624;48.126;11.546;2023-02-08T13:30:54;14.80;;;11.30;;
9178;SDS011;4624;48.126;11.546;2023-02-08T13:33:27;17.23;;;11.83;;
9178;SDS011;4624;48.126;11.546;2023-02-08T13:36:01;14.90;;;11.30;;
9178;SDS011;4624;48.126;11.546;2023-02-08T13:38:29;14.30;;;12.13;;
9178;SDS011;4624;48.126;11.546;2023-02-08T13:41:02;14.67;;;10.53;;
9178;SDS011;4624;48.126;11.546;2023-02-08T13:43:33;16.03;;;11.33;;
9178;SDS011;4624;48.126;11.546;2023-02-08T13:46:03;15.30;;;10.50;;
9178;SDS011;4624;48.126;11.546;2023-02-08T13:48:39;14.47;;;10.53;;
9178;SDS011;4624;48.126;11.546;2023-02-08T13:54:10;15.20;;;9.93;;
9178;SDS011;4624;48.126;11.546;2023-02-08T13:56:38;14.60;;;10.47;;
9178;SDS011;4624;48.126;11.546;2023-02-08T14:04:50;13.87;;;9.90;;
9178;SDS011;4624;48.126;11.546;2023-02-08T14:07:21;13.13;;;10.93;;
9178;SDS011;4624;48.126;11.546;2023-02-08T14:12:47;16.17;;;10.97;;
9178;SDS011;4624;48.126;11.546;2023-02-08T14:18:22;15.00;;;10.30;;
9178;SDS011;4624;48.126;11.546;2023-02-08T14:20:58;14.13;;;10.77;;
9178;SDS011;4624;48.126;11.546;2023-02-08T14:23:30;13.57;;;9.50;;
9178;SDS011;4624;48.126;11.546;2023-02-08T14:26:00;15.67;;;10.27;;
9178;SDS011;4624;48.126;11.546;2023-02-08T14:28:31;16.83;;;10.13;;
9178;SDS011;4624;48.126;11.546;2023-02-08T14:31:03;15.90;;;11.20;;
9178;SDS011;4624;48.126;11.546;2023-02-08T14:33:34;16.87;;;10.07;;
9178;SDS011;4624;48.126;11.546;2023-02-08T14:36:03;14.10;;;10.47;;
9178;SDS011;4624;48.126;11.546;2023-02-08T14:38:35;18.97;;;10.40;;
9178;SDS011;4624;48.126;11.546;2023-02-08T14:50:40;15.87;;;9.90;;
9178;SDS011;4624;48.126;11.546;2023-02-08T14:53:18;13.27;;;9.77;;
9178;SDS011;4624;48.126;11.546;2023-02-08T14:56:03;13.87;;;9.57;;
9178;SDS011;4624;48.126;11.546;2023-02-08T14:58:33;17.33;;;9.13;;
9178;SDS011;4624;48.126;11.546;2023-02-08T15:01:04;14.10;;;9.80;;
9178;SDS011;4624;48.126;11.546;2023-02-08T15:03:37;14.77;;;9.13;;
9178;SDS011;4624;48.126;11.546;2023-02-08T15:09:03;13.70;;;9.17;;
9178;SDS011;4624;48.126;11.546;2023-02-08T15:11:32;12.83;;;8.80;;
9178;SDS011;4624;48.126;11.546;2023-02-08T15:14:01;12.13;;;8.00;;
9178;SDS011;4624;48.126;11.546;2023-02-08T15:16:31;14.17;;;8.83;;
9178;SDS011;4624;48.126;11.546;2023-02-08T15:19:02;12.70;;;8.97;;
9178;SDS011;4624;48.126;11.546;2023-02-08T15:21:31;12.57;;;7.83;;
9178;SDS011;4624;48.126;11.546;2023-02-08T15:24:02;12.30;;;8.53;;
9178;SDS011;4624;48.126;11.546;2023-02-08T15:26:32;16.77;;;9.57;;
9178;SDS011;4624;48.126;11.546;2023-02-08T15:28:59;10.93;;;7.20;;
9178;SDS011;4624;48.126;11.546;2023-02-08T15:31:27;11.73;;;9.13;;
9178;SDS011;4624;48.126;11.546;2023-02-08T15:33:58;12.67;;;7.83;;
9178;SDS011;4624;48.126;11.546;2023-02-08T15:36:27;12.13;;;8.33;;
9178;SDS011;4624;48.126;11.546;2023-02-08T15:38:58;12.00;;;8.13;;